Time;durP1;ratioP1;P1;durP2;ratioP2;P2;SDS_P1;SDS_P2;PMS_P1;PMS_P2;Temp;Humidity;BMP_temperature;BMP_pressure;BME280_temperature;BME280_humidity;BME280_pressure;Samples;Min_cycle;Max_cycle;Signal;HPM_P1;HPM_P2
2022/07/27 00:00:52;;;;;;;0.50;0.40;;;17.30;67.20;;;;;;5040850;28;20053;-67
2022/07/27 00:03:18;;;;;;;0.52;0.47;;;17.30;67.30;;;;;;5046672;28;20052;-67
2022/07/27 00:05:44;;;;;;;2.42;0.70;;;17.30;67.40;;;;;;5047856;28;20053;-68
2022/07/27 00:08:10;;;;;;;0.40;0.40;;;17.40;67.50;;;;;;5047947;28;20540;-67
2022/07/27 00:10:36;;;;;;;0.28;0.28;;;17.30;67.50;;;;;;5048179;28;20045;-68
2022/07/27 00:13:03;;;;;;;1.60;0.50;;;17.40;67.70;;;;;;5048692;28;20029;-67
2022/07/27 00:15:29;;;;;;;0.70;0.70;;;17.30;67.50;;;;;;5049589;28;20037;-68
2022/07/27 00:17:57;;;;;;;0.98;0.30;;;17.40;67.50;;;;;;5049377;28;20033;-68
2022/07/27 00:20:22;;;;;;;1.55;1.10;;;17.40;67.50;;;;;;5049816;28;20029;-68
2022/07/27 00:22:48;;;;;;;0.82;0.40;;;17.40;67.40;;;;;;5048015;28;20037;-68
2022/07/27 00:25:14;;;;;;;0.73;0.68;;;17.40;67.40;;;;;;5045641;28;20475;-68
2022/07/27 00:27:39;;;;;;;0.80;0.57;;;17.30;67.40;;;;;;5051958;28;20037;-67
2022/07/27 00:30:05;;;;;;;1.85;0.40;;;17.30;67.60;;;;;;5053531;28;20040;-67
2022/07/27 00:32:31;;;;;;;0.93;0.68;;;17.20;67.70;;;;;;5068217;28;20533;-67
2022/07/27 00:34:57;;;;;;;0.70;0.40;;;17.20;67.80;;;;;;5048288;28;20112;-68
2022/07/27 00:37:22;;;;;;;0.40;0.40;;;17.20;67.90;;;;;;5053552;28;20045;-68
2022/07/27 00:39:48;;;;;;;0.75;0.52;;;17.20;67.90;;;;;;5053710;28;20033;-68
2022/07/27 00:42:14;;;;;;;3.97;0.82;;;17.10;67.80;;;;;;5052677;28;20036;-68
2022/07/27 00:44:40;;;;;;;0.65;0.47;;;17.10;67.90;;;;;;5052947;28;20028;-68
2022/07/27 00:47:06;;;;;;;3.50;0.95;;;17.10;67.90;;;;;;5050031;28;20039;-68
2022/07/27 00:49:31;;;;;;;0.40;0.40;;;17.10;68.00;;;;;;5051500;28;20037;-68
2022/07/27 00:51:58;;;;;;;1.85;0.85;;;17.10;68.00;;;;;;5052746;28;20032;-68
2022/07/27 00:54:24;;;;;;;0.45;0.45;;;17.10;68.00;;;;;;5051264;28;20104;-67
2022/07/27 00:56:50;;;;;;;0.68;0.40;;;17.00;67.90;;;;;;5051719;28;20064;-67
2022/07/27 00:59:15;;;;;;;0.95;0.60;;;17.00;68.10;;;;;;5052056;28;20466;-68
2022/07/27 01:01:41;;;;;;;0.50;0.50;;;16.90;68.20;;;;;;5066974;28;20063;-67
2022/07/27 01:04:08;;;;;;;0.57;0.57;;;16.90;68.40;;;;;;5052629;28;20487;-67
2022/07/27 01:06:34;;;;;;;1.58;0.77;;;16.80;68.40;;;;;;5052432;28;20037;-68
2022/07/27 01:11:46;;;;;;;0.63;0.40;;;16.70;68.50;;;;;;5045767;28;20526;-67
2022/07/27 01:14:13;;;;;;;0.52;0.52;;;16.70;68.60;;;;;;5050842;28;20029;-67
2022/07/27 01:16:39;;;;;;;0.30;0.30;;;16.70;68.60;;;;;;5051782;28;20041;-68
2022/07/27 01:19:09;;;;;;;1.00;0.57;;;16.60;68.60;;;;;;5055710;28;20033;-68
2022/07/27 01:21:35;;;;;;;1.60;0.63;;;16.70;68.70;;;;;;5052761;28;20120;-67
2022/07/27 01:24:03;;;;;;;0.40;0.40;;;16.60;68.80;;;;;;5051805;28;20033;-67
2022/07/27 01:26:30;;;;;;;1.85;0.57;;;16.60;68.80;;;;;;5048646;28;20045;-67
2022/07/27 01:29:00;;;;;;;0.40;0.38;;;16.60;68.80;;;;;;5050405;28;20037;-67
2022/07/27 01:31:26;;;;;;;0.52;0.52;;;16.60;68.80;;;;;;5047292;28;20214;-68
2022/07/27 01:33:52;;;;;;;1.75;0.65;;;16.60;68.80;;;;;;5051856;28;20041;-67
2022/07/27 01:36:18;;;;;;;0.60;0.50;;;16.60;68.80;;;;;;5052214;28;20048;-68
2022/07/27 01:38:44;;;;;;;0.30;0.30;;;16.70;68.80;;;;;;5049866;28;20043;-67
2022/07/27 01:41:10;;;;;;;0.60;0.60;;;16.70;68.70;;;;;;5052229;28;20033;-66
2022/07/27 01:43:36;;;;;;;0.80;0.73;;;16.70;68.80;;;;;;5052120;28;20041;-67
2022/07/27 01:46:02;;;;;;;0.50;0.50;;;16.70;68.90;;;;;;5051867;28;20032;-68
2022/07/27 01:48:28;;;;;;;1.05;0.50;;;16.70;68.90;;;;;;5050676;28;20029;-68
2022/07/27 01:50:54;;;;;;;0.52;0.35;;;16.80;69.00;;;;;;5050309;28;20095;-66
2022/07/27 01:53:20;;;;;;;0.40;0.40;;;16.70;69.00;;;;;;5049767;28;20541;-67
2022/07/27 01:55:47;;;;;;;0.57;0.50;;;16.70;69.00;;;;;;5041951;28;20539;-67
2022/07/27 01:58:13;;;;;;;0.55;0.50;;;16.60;69.20;;;;;;5050925;28;20029;-68
2022/07/27 02:00:39;;;;;;;0.57;0.50;;;16.60;69.30;;;;;;5051276;28;20069;-67
2022/07/27 02:03:07;;;;;;;0.68;0.57;;;16.60;69.20;;;;;;5066230;28;20021;-68
2022/07/27 02:05:33;;;;;;;0.98;0.70;;;16.70;69.50;;;;;;5050348;28;20078;-68
2022/07/27 02:07:58;;;;;;;1.88;0.35;;;16.70;69.40;;;;;;5039433;28;20511;-68
2022/07/27 02:10:24;;;;;;;1.23;0.50;;;16.70;69.30;;;;;;5051632;28;20112;-68
2022/07/27 02:12:51;;;;;;;1.42;0.80;;;16.70;69.30;;;;;;5051111;28;20404;-68
2022/07/27 02:15:19;;;;;;;0.88;0.70;;;16.70;69.30;;;;;;5048631;28;20039;-68
2022/07/27 02:17:46;;;;;;;0.80;0.43;;;16.70;69.40;;;;;;5050128;28;20029;-68
2022/07/27 02:20:14;;;;;;;0.60;0.60;;;16.70;69.30;;;;;;5042220;28;20029;-68
2022/07/27 02:22:39;;;;;;;0.70;0.70;;;16.70;69.30;;;;;;5052193;28;20421;-69
2022/07/27 02:25:06;;;;;;;0.80;0.80;;;16.70;69.30;;;;;;5051175;28;20060;-68
2022/07/27 02:27:32;;;;;;;0.63;0.60;;;16.70;69.30;;;;;;5050679;28;20362;-68
2022/07/27 02:29:58;;;;;;;0.38;0.38;;;16.70;69.30;;;;;;5051654;28;20082;-68
2022/07/27 02:32:24;;;;;;;1.77;0.70;;;16.70;69.30;;;;;;5051520;28;20041;-68
2022/07/27 02:34:49;;;;;;;0.40;0.40;;;16.80;69.40;;;;;;5045371;28;20409;-68
2022/07/27 02:37:15;;;;;;;0.30;0.30;;;16.70;69.40;;;;;;5050753;28;20480;-68
2022/07/27 02:39:41;;;;;;;1.23;0.70;;;16.70;69.40;;;;;;5051768;28;20044;-68
2022/07/27 02:42:07;;;;;;;0.40;0.40;;;16.80;69.60;;;;;;5051889;28;20052;-68
2022/07/27 02:44:33;;;;;;;0.93;0.50;;;16.80;69.60;;;;;;5051673;28;20016;-68
2022/07/27 02:46:59;;;;;;;0.45;0.45;;;16.80;69.50;;;;;;5044450;28;20116;-69
2022/07/27 02:49:24;;;;;;;0.68;0.60;;;16.80;69.60;;;;;;5065444;28;20207;-68
2022/07/27 02:51:51;;;;;;;0.52;0.50;;;16.80;69.60;;;;;;5050025;28;20411;-68
2022/07/27 02:54:23;;;;;;;3.55;1.17;;;16.80;69.60;;;;;;5047166;28;20052;-68
2022/07/27 02:56:54;;;;;;;1.98;0.73;;;16.80;69.40;;;;;;5045247;28;20041;-68
2022/07/27 02:59:20;;;;;;;3.92;0.93;;;16.80;69.40;;;;;;5042942;28;20120;-68
2022/07/27 03:01:47;;;;;;;3.03;0.43;;;16.80;69.90;;;;;;5050552;28;20029;-68
2022/07/27 03:04:13;;;;;;;1.42;0.50;;;16.70;69.30;;;;;;5065304;28;20058;-68
2022/07/27 03:06:39;;;;;;;0.50;0.50;;;16.70;69.40;;;;;;5051948;28;20029;-68
2022/07/27 03:09:05;;;;;;;2.30;0.88;;;16.60;69.50;;;;;;5049954;28;20063;-68
2022/07/27 03:11:31;;;;;;;0.70;0.68;;;16.60;69.60;;;;;;5058144;28;20036;-68
2022/07/27 03:13:56;;;;;;;2.25;0.63;;;16.60;69.60;;;;;;5050435;28;20041;-68
2022/07/27 03:16:22;;;;;;;0.80;0.40;;;16.60;69.70;;;;;;5050528;28;20426;-68
2022/07/27 03:18:48;;;;;;;1.35;0.77;;;16.60;69.80;;;;;;5066154;28;20067;-68
2022/07/27 03:21:13;;;;;;;0.50;0.50;;;16.60;69.70;;;;;;5049188;28;20056;-68
2022/07/27 03:23:39;;;;;;;3.63;0.50;;;16.60;69.80;;;;;;5050577;28;20037;-68
2022/07/27 03:26:05;;;;;;;0.40;0.40;;;16.60;69.70;;;;;;5050192;28;20521;-68
2022/07/27 03:28:31;;;;;;;0.60;0.60;;;16.60;69.60;;;;;;5045439;28;20061;-68
2022/07/27 03:30:57;;;;;;;0.40;0.38;;;16.60;69.70;;;;;;5043898;28;20075;-68
2022/07/27 03:33:23;;;;;;;1.08;0.75;;;16.70;69.80;;;;;;5050401;28;20435;-68
2022/07/27 03:35:49;;;;;;;0.47;0.47;;;16.70;69.80;;;;;;5049823;28;20442;-68
2022/07/27 03:38:15;;;;;;;0.40;0.40;;;16.60;69.60;;;;;;5048951;28;20029;-68
2022/07/27 03:40:41;;;;;;;2.08;0.60;;;16.60;69.60;;;;;;5047556;28;20098;-68
2022/07/27 03:43:07;;;;;;;0.50;0.50;;;16.60;69.60;;;;;;5049453;28;20027;-68
2022/07/27 03:45:33;;;;;;;1.88;0.80;;;16.60;69.60;;;;;;5048278;28;20032;-68
2022/07/27 03:47:59;;;;;;;1.02;0.80;;;16.60;69.70;;;;;;5049052;28;20587;-69
2022/07/27 03:50:26;;;;;;;1.20;0.68;;;16.60;69.70;;;;;;5048446;28;20044;-68
2022/07/27 03:52:51;;;;;;;1.45;0.80;;;16.60;69.70;;;;;;5047485;28;20037;-68
2022/07/27 03:55:20;;;;;;;0.88;0.68;;;16.60;69.70;;;;;;5049672;28;20490;-68
2022/07/27 03:57:46;;;;;;;0.68;0.68;;;16.60;69.60;;;;;;5049320;28;20020;-69
2022/07/27 04:00:13;;;;;;;1.85;0.57;;;16.70;69.70;;;;;;5048985;28;20078;-68
2022/07/27 04:02:40;;;;;;;1.13;0.50;;;16.70;69.60;;;;;;5050888;28;20048;-68
2022/07/27 04:05:07;;;;;;;1.95;0.70;;;16.70;69.50;;;;;;5049083;28;20453;-68
2022/07/27 04:07:32;;;;;;;1.48;0.40;;;16.70;69.50;;;;;;5046751;28;20088;-67
2022/07/27 04:09:58;;;;;;;2.63;0.70;;;16.70;69.60;;;;;;5064342;28;20056;-68
2022/07/27 04:12:24;;;;;;;1.52;0.93;;;16.60;69.60;;;;;;5050110;28;20040;-68
2022/07/27 04:14:49;;;;;;;1.45;0.90;;;16.60;69.70;;;;;;5043465;28;20037;-67
2022/07/27 04:17:15;;;;;;;1.05;0.68;;;16.60;69.70;;;;;;5040131;28;20040;-68
2022/07/27 04:19:41;;;;;;;0.45;0.35;;;16.60;69.70;;;;;;5039085;28;20044;-68
2022/07/27 04:22:06;;;;;;;0.95;0.82;;;16.60;69.70;;;;;;5048868;28;20082;-68
2022/07/27 04:24:32;;;;;;;0.82;0.60;;;16.60;69.60;;;;;;5044129;28;20481;-68
2022/07/27 04:26:58;;;;;;;0.45;0.43;;;16.60;69.80;;;;;;5050302;28;20780;-68
2022/07/27 04:29:24;;;;;;;1.70;0.82;;;16.50;69.80;;;;;;5049158;28;20138;-68
2022/07/27 04:31:49;;;;;;;0.30;0.30;;;16.50;69.90;;;;;;5050497;28;20495;-67
2022/07/27 04:34:15;;;;;;;1.85;0.60;;;16.60;70.00;;;;;;5048112;28;20119;-68
2022/07/27 04:36:41;;;;;;;1.23;0.40;;;16.50;69.90;;;;;;5048646;28;20098;-68
2022/07/27 04:39:07;;;;;;;0.38;0.38;;;16.60;70.00;;;;;;5049423;28;20036;-68
2022/07/27 04:41:32;;;;;;;0.43;0.32;;;16.60;70.00;;;;;;5049795;28;20033;-68
2022/07/27 04:43:58;;;;;;;3.28;0.90;;;16.60;69.80;;;;;;5045824;28;20363;-68
2022/07/27 04:46:24;;;;;;;3.90;0.82;;;16.70;70.10;;;;;;5047562;28;20071;-68
2022/07/27 04:48:50;;;;;;;0.50;0.50;;;16.70;69.90;;;;;;5045363;28;20037;-68
2022/07/27 04:51:16;;;;;;;0.50;0.47;;;16.80;69.90;;;;;;5045182;28;20090;-68
2022/07/27 04:53:42;;;;;;;0.32;0.32;;;16.80;69.90;;;;;;5045497;28;20087;-68
2022/07/27 04:56:09;;;;;;;0.40;0.40;;;16.80;69.80;;;;;;5043350;28;20762;-68
2022/07/27 04:58:35;;;;;;;1.10;0.73;;;16.80;69.80;;;;;;5043522;28;20086;-69
2022/07/27 05:01:02;;;;;;;0.68;0.60;;;16.80;69.90;;;;;;5050037;28;20072;-68
2022/07/27 05:03:27;;;;;;;1.20;0.60;;;16.80;69.90;;;;;;5036918;28;20060;-68
2022/07/27 05:05:53;;;;;;;0.45;0.45;;;16.70;69.90;;;;;;5049895;28;20037;-67
2022/07/27 05:08:19;;;;;;;0.20;0.20;;;16.70;70.00;;;;;;5047590;28;20037;-68
2022/07/27 05:10:45;;;;;;;0.32;0.30;;;16.70;70.10;;;;;;5047915;28;20044;-68
2022/07/27 05:13:11;;;;;;;0.65;0.40;;;16.80;70.20;;;;;;5051463;28;20033;-68
2022/07/27 05:15:38;;;;;;;0.40;0.40;;;16.80;70.30;;;;;;5052597;28;20098;-68
2022/07/27 05:18:04;;;;;;;1.15;0.52;;;16.80;70.20;;;;;;5065425;28;20037;-68
2022/07/27 05:20:30;;;;;;;0.95;0.75;;;16.80;70.30;;;;;;5051736;28;20399;-68
2022/07/27 05:22:55;;;;;;;0.40;0.40;;;16.90;70.40;;;;;;5052205;28;20031;-68
2022/07/27 05:25:24;;;;;;;0.40;0.40;;;16.90;70.60;;;;;;5047595;28;20037;-68
2022/07/27 05:27:53;;;;;;;0.38;0.38;;;16.90;70.60;;;;;;5048260;28;20044;-68
2022/07/27 05:30:20;;;;;;;0.68;0.50;;;17.00;70.60;;;;;;5051636;28;20119;-68
2022/07/27 05:32:46;;;;;;;0.30;0.30;;;17.10;70.60;;;;;;5046660;28;20045;-69
2022/07/27 05:35:12;;;;;;;2.60;0.40;;;17.10;70.70;;;;;;5051761;28;20025;-68
2022/07/27 05:37:38;;;;;;;0.22;0.20;;;17.20;70.70;;;;;;5052661;28;20029;-68
2022/07/27 05:40:06;;;;;;;0.85;0.50;;;17.20;70.70;;;;;;5051536;28;20040;-68
2022/07/27 05:42:32;;;;;;;0.25;0.25;;;17.30;70.70;;;;;;5051384;28;20036;-69
2022/07/27 05:44:57;;;;;;;2.13;0.60;;;17.30;70.70;;;;;;5050488;28;20024;-68
2022/07/27 05:47:23;;;;;;;2.08;0.47;;;17.40;70.60;;;;;;5048710;28;20021;-68
2022/07/27 05:49:49;;;;;;;2.08;0.55;;;17.40;70.60;;;;;;5050272;28;20037;-69
2022/07/27 05:52:15;;;;;;;0.20;0.20;;;17.50;70.70;;;;;;5051510;28;20078;-68
2022/07/27 05:54:42;;;;;;;1.85;0.38;;;17.50;70.60;;;;;;5050915;28;20039;-68
2022/07/27 05:57:08;;;;;;;0.43;0.30;;;17.50;70.60;;;;;;5044863;28;20087;-68
2022/07/27 05:59:35;;;;;;;0.47;0.47;;;17.50;70.70;;;;;;5049863;28;20053;-68
2022/07/27 06:02:01;;;;;;;0.35;0.35;;;17.50;70.70;;;;;;5049647;28;20029;-68
2022/07/27 06:04:26;;;;;;;0.43;0.32;;;17.60;70.70;;;;;;5049422;28;20029;-68
2022/07/27 06:09:56;;;;;;;1.95;0.40;;;17.80;70.70;;;;;;5028934;28;20370;-68
2022/07/27 06:12:22;;;;;;;0.35;0.25;;;17.80;70.40;;;;;;5027766;28;20037;-68
2022/07/27 06:14:48;;;;;;;0.30;0.30;;;17.90;70.30;;;;;;5035479;28;20033;-68
2022/07/27 06:17:14;;;;;;;0.47;0.30;;;18.00;70.10;;;;;;5049788;28;20136;-68
2022/07/27 06:19:40;;;;;;;0.32;0.20;;;18.00;70.00;;;;;;5049596;28;20487;-68
2022/07/27 06:22:06;;;;;;;0.32;0.32;;;18.00;70.10;;;;;;5050162;28;20025;-68
2022/07/27 06:24:32;;;;;;;0.45;0.38;;;18.00;69.90;;;;;;5049370;28;20591;-69
2022/07/27 06:26:58;;;;;;;0.20;0.20;;;18.00;69.90;;;;;;5050245;28;20104;-69
2022/07/27 06:29:24;;;;;;;0.88;0.57;;;18.10;70.00;;;;;;5050075;28;20030;-68
2022/07/27 06:31:50;;;;;;;0.32;0.20;;;18.20;69.90;;;;;;5051183;28;20037;-68
2022/07/27 06:34:15;;;;;;;0.30;0.30;;;18.20;69.80;;;;;;5044866;28;20037;-67
2022/07/27 06:36:43;;;;;;;0.32;0.32;;;18.30;69.60;;;;;;5046627;28;20099;-68
2022/07/27 06:39:12;;;;;;;1.00;0.57;;;18.30;69.50;;;;;;5043217;28;20056;-69
2022/07/27 06:41:38;;;;;;;0.30;0.30;;;18.30;69.40;;;;;;5037650;28;20068;-68
2022/07/27 06:44:04;;;;;;;0.25;0.25;;;18.40;69.40;;;;;;5047650;28;20033;-68
2022/07/27 06:46:30;;;;;;;1.08;0.50;;;18.50;69.20;;;;;;5039862;28;20021;-69
2022/07/27 06:48:55;;;;;;;0.20;0.20;;;18.50;69.10;;;;;;5038839;28;20033;-68
2022/07/27 06:51:22;;;;;;;0.30;0.30;;;18.60;68.80;;;;;;5043434;28;20030;-68
2022/07/27 06:53:51;;;;;;;0.35;0.35;;;18.60;68.70;;;;;;5041335;28;20120;-69
2022/07/27 06:56:18;;;;;;;0.20;0.20;;;18.70;68.60;;;;;;5045401;28;20047;-69
2022/07/27 06:58:43;;;;;;;0.28;0.28;;;18.80;68.40;;;;;;5046787;28;20037;-68
2022/07/27 07:01:09;;;;;;;0.80;0.57;;;18.80;68.10;;;;;;5048280;28;20392;-68
2022/07/27 07:03:35;;;;;;;0.30;0.30;;;18.90;67.90;;;;;;5039813;28;20060;-68
2022/07/27 07:06:01;;;;;;;0.40;0.40;;;19.00;67.80;;;;;;5061628;28;20025;-68
2022/07/27 07:08:26;;;;;;;0.65;0.47;;;19.00;67.50;;;;;;5034156;28;20057;-68
2022/07/27 07:10:53;;;;;;;0.22;0.22;;;19.00;67.40;;;;;;5042054;28;20053;-68
2022/07/27 07:13:19;;;;;;;0.30;0.30;;;19.10;67.10;;;;;;5049851;28;20056;-68
2022/07/27 07:15:44;;;;;;;0.55;0.55;;;19.00;66.90;;;;;;5044432;28;20067;-68
2022/07/27 07:18:11;;;;;;;0.55;0.30;;;19.10;66.70;;;;;;5049114;28;20036;-69
2022/07/27 07:20:38;;;;;;;2.35;0.77;;;19.10;66.50;;;;;;5046212;28;20075;-69
2022/07/27 07:23:04;;;;;;;0.50;0.50;;;19.10;66.40;;;;;;5047960;28;20053;-68
2022/07/27 07:25:31;;;;;;;0.30;0.30;;;19.10;65.30;;;;;;5043154;28;20036;-68
2022/07/27 07:27:58;;;;;;;0.60;0.32;;;19.20;65.20;;;;;;5054956;28;20095;-68
2022/07/27 07:30:24;;;;;;;0.25;0.25;;;19.40;64.70;;;;;;5038256;28;20024;-68
2022/07/27 07:32:50;;;;;;;0.73;0.30;;;19.60;64.20;;;;;;5050897;28;20111;-68
2022/07/27 07:35:16;;;;;;;0.30;0.30;;;19.70;63.80;;;;;;5047655;28;20100;-67
2022/07/27 07:37:42;;;;;;;0.30;0.28;;;19.70;63.80;;;;;;5048720;28;20044;-67
2022/07/27 07:40:09;;;;;;;0.73;0.52;;;19.80;63.90;;;;;;5046372;28;20033;-66
2022/07/27 07:42:56;;;;;;;0.93;0.50;;;19.70;63.70;;;;;;5029702;28;20488;-67
2022/07/27 07:45:23;;;;;;;2.60;0.65;;;19.80;63.90;;;;;;5048189;28;20021;-68
2022/07/27 07:47:49;;;;;;;1.73;0.63;;;19.80;63.90;;;;;;5054185;28;20033;-66
2022/07/27 07:50:15;;;;;;;0.22;0.22;;;19.90;63.80;;;;;;5038644;28;20032;-67
2022/07/27 07:52:41;;;;;;;0.20;0.20;;;20.00;63.30;;;;;;5043443;28;20037;-66
2022/07/27 07:55:07;;;;;;;0.28;0.28;;;20.10;62.40;;;;;;5022345;28;20034;-67
2022/07/27 07:57:33;;;;;;;0.50;0.50;;;20.00;62.00;;;;;;5037231;28;20045;-68
2022/07/27 07:59:59;;;;;;;0.38;0.30;;;20.10;61.60;;;;;;5052119;28;20572;-68
2022/07/27 08:02:24;;;;;;;0.25;0.25;;;20.10;60.80;;;;;;5038937;28;20140;-68
2022/07/27 08:04:50;;;;;;;0.65;0.57;;;20.10;61.10;;;;;;5046493;28;20037;-68
2022/07/27 08:07:15;;;;;;;0.50;0.50;;;20.20;61.20;;;;;;5039446;28;20029;-68
2022/07/27 08:09:41;;;;;;;0.57;0.30;;;20.30;60.80;;;;;;5046720;28;20048;-68
2022/07/27 08:12:07;;;;;;;1.00;0.80;;;20.50;60.70;;;;;;5043963;28;20041;-68
2022/07/27 08:14:33;;;;;;;0.65;0.30;;;20.60;60.50;;;;;;5042551;28;20030;-68
2022/07/27 08:16:58;;;;;;;0.98;0.82;;;20.80;59.80;;;;;;5050900;28;21651;-68
2022/07/27 08:19:24;;;;;;;1.50;0.30;;;20.90;59.40;;;;;;5040713;28;20045;-68
2022/07/27 08:21:50;;;;;;;0.50;0.50;;;21.00;58.30;;;;;;5032779;28;20033;-68
2022/07/27 08:24:16;;;;;;;0.50;0.40;;;21.10;58.30;;;;;;5034222;28;20040;-68
2022/07/27 08:26:41;;;;;;;0.77;0.65;;;21.20;57.90;;;;;;5038594;28;20104;-68
2022/07/27 08:29:07;;;;;;;0.80;0.47;;;21.40;57.50;;;;;;5037372;28;20029;-68
2022/07/27 08:31:33;;;;;;;0.88;0.65;;;21.60;57.50;;;;;;5036381;28;20033;-67
2022/07/27 08:33:58;;;;;;;0.77;0.52;;;21.60;57.10;;;;;;5033244;28;20082;-68
2022/07/27 08:36:24;;;;;;;0.38;0.38;;;21.60;57.10;;;;;;5041987;28;20082;-68
2022/07/27 08:38:50;;;;;;;0.77;0.60;;;21.50;57.10;;;;;;5039905;28;20036;-68
2022/07/27 08:41:17;;;;;;;0.45;0.35;;;21.40;56.50;;;;;;5054715;28;20060;-68
2022/07/27 08:43:47;;;;;;;0.20;0.20;;;21.40;56.60;;;;;;5058023;28;20021;-68
2022/07/27 08:46:16;;;;;;;0.63;0.20;;;21.30;56.30;;;;;;5043529;28;20028;-68
2022/07/27 08:48:42;;;;;;;0.30;0.30;;;21.20;56.50;;;;;;5041537;28;20082;-68
2022/07/27 08:51:08;;;;;;;0.68;0.47;;;21.00;56.70;;;;;;5045660;28;20341;-68
2022/07/27 08:53:34;;;;;;;0.22;0.22;;;21.00;56.80;;;;;;5043853;28;20037;-68
2022/07/27 08:56:00;;;;;;;6.38;0.40;;;21.10;56.50;;;;;;5043691;28;20033;-68
2022/07/27 08:58:26;;;;;;;0.40;0.40;;;21.30;55.40;;;;;;5046272;28;20033;-68
2022/07/27 09:00:52;;;;;;;0.20;0.20;;;21.40;55.50;;;;;;5044406;28;20043;-68
2022/07/27 09:03:20;;;;;;;2.83;1.40;;;21.60;55.00;;;;;;5046697;28;20395;-68
2022/07/27 09:05:54;;;;;;;0.40;0.38;;;21.60;54.40;;;;;;5051327;28;20545;-68
2022/07/27 09:08:23;;;;;;;0.28;0.28;;;21.70;54.50;;;;;;5049467;28;20429;-68
2022/07/27 09:10:49;;;;;;;0.85;0.47;;;21.90;54.30;;;;;;5049643;28;20039;-68
2022/07/27 09:13:33;;;;;;;0.35;0.35;;;21.80;53.70;;;;;;5046528;28;20040;-68
2022/07/27 09:16:01;;;;;;;0.25;0.25;;;21.70;54.00;;;;;;5046400;28;20043;-66
2022/07/27 09:18:29;;;;;;;0.38;0.38;;;21.60;54.00;;;;;;5058258;28;20041;-66
2022/07/27 09:21:21;;;;;;;0.30;0.30;;;21.40;54.20;;;;;;5048895;28;20032;-66
2022/07/27 09:23:47;;;;;;;;;;;21.30;54.50;;;;;;5049261;28;20036;-67
2022/07/27 09:26:23;;;;;;;5.28;0.50;;;21.20;54.70;;;;;;5057590;28;19915;-67
2022/07/27 09:28:58;;;;;;;1.55;0.30;;;21.30;54.80;;;;;;5060839;28;20481;-67
2022/07/27 09:31:24;;;;;;;0.20;0.20;;;21.60;54.40;;;;;;5050586;28;20396;-67
2022/07/27 09:33:53;;;;;;;1.75;0.30;;;21.90;54.20;;;;;;5052088;28;20025;-67
2022/07/27 09:36:21;;;;;;;0.52;0.35;;;22.00;53.50;;;;;;5050106;28;20083;-68
2022/07/27 09:38:54;;;;;;;0.22;0.22;;;22.10;53.50;;;;;;5044550;28;20043;-68
2022/07/27 09:41:20;;;;;;;0.30;0.30;;;22.20;53.10;;;;;;5052433;28;20484;-67
2022/07/27 09:43:54;;;;;;;0.50;0.50;;;22.20;52.90;;;;;;5050271;28;20074;-67
2022/07/27 09:46:38;;;;;;;0.43;0.43;;;22.20;51.90;;;;;;5051363;28;20025;-67
2022/07/27 09:49:05;;;;;;;0.30;0.30;;;22.20;52.00;;;;;;5048203;28;20025;-67
2022/07/27 09:51:30;;;;;;;0.35;0.35;;;22.20;52.20;;;;;;5050269;28;20491;-67
2022/07/27 09:53:59;;;;;;;0.38;0.38;;;22.30;52.20;;;;;;5047105;28;20044;-67
2022/07/27 09:56:30;;;;;;;0.40;0.40;;;22.30;52.10;;;;;;5048446;28;20037;-67
2022/07/27 09:59:01;;;;;;;0.47;0.38;;;22.30;52.30;;;;;;5049597;28;20035;-67
2022/07/27 10:01:36;;;;;;;1.35;0.40;;;22.20;52.10;;;;;;5067078;28;20048;-67
2022/07/27 10:04:04;;;;;;;0.40;0.40;;;22.00;52.40;;;;;;5039272;28;20041;-67
2022/07/27 10:06:30;;;;;;;0.28;0.20;;;21.90;52.70;;;;;;5050532;28;20048;-67
2022/07/27 10:08:58;;;;;;;4.18;1.20;;;21.80;52.30;;;;;;5049879;28;20429;-67
2022/07/27 10:11:25;;;;;;;2.00;1.02;;;21.80;52.70;;;;;;5051173;28;20403;-67
2022/07/27 10:13:52;;;;;;;0.73;0.55;;;21.70;52.60;;;;;;5051227;28;20053;-67
2022/07/27 10:16:22;;;;;;;0.40;0.40;;;21.70;52.70;;;;;;5050921;28;20040;-67
2022/07/27 10:19:12;;;;;;;0.40;0.40;;;21.70;52.50;;;;;;5049074;28;20051;-67
2022/07/27 10:21:39;;;;;;;1.75;0.63;;;21.70;52.70;;;;;;5064401;28;20483;-68
2022/07/27 10:24:08;;;;;;;2.17;0.30;;;21.80;52.90;;;;;;5052125;28;20028;-68
2022/07/27 10:26:43;;;;;;;1.23;0.40;;;22.00;52.70;;;;;;5063699;28;20060;-67
2022/07/27 10:29:12;;;;;;;0.65;0.60;;;22.20;52.40;;;;;;5065989;28;20051;-67
2022/07/27 10:31:39;;;;;;;0.50;0.50;;;22.20;52.20;;;;;;5048059;28;20086;-68
2022/07/27 10:34:11;;;;;;;0.30;0.30;;;22.30;52.20;;;;;;5050288;28;20484;-68
2022/07/27 10:36:49;;;;;;;0.60;0.30;;;22.30;52.20;;;;;;5049118;28;20040;-68
2022/07/27 10:39:28;;;;;;;0.20;0.20;;;22.30;52.10;;;;;;5066085;28;20048;-68
2022/07/27 10:42:17;;;;;;;0.65;0.55;;;22.30;52.20;;;;;;5047820;28;20033;-68
2022/07/27 10:45:09;;;;;;;0.80;0.55;;;22.40;52.30;;;;;;5049766;28;20033;-68
2022/07/27 10:47:44;;;;;;;0.30;0.20;;;22.50;51.90;;;;;;5044315;28;20392;-68
2022/07/27 10:50:22;;;;;;;3.72;0.40;;;22.50;51.70;;;;;;5045199;28;20033;-67
2022/07/27 10:52:54;;;;;;;0.68;0.60;;;22.50;51.80;;;;;;5042622;28;20040;-67
2022/07/27 10:55:32;;;;;;;2.20;0.55;;;22.50;51.80;;;;;;5037334;28;20029;-67
2022/07/27 10:58:10;;;;;;;1.08;0.60;;;22.50;51.40;;;;;;5049242;28;20033;-67
2022/07/27 11:00:47;;;;;;;1.65;0.40;;;22.80;51.50;;;;;;5049764;28;20025;-67
2022/07/27 11:03:24;;;;;;;1.13;0.52;;;23.30;50.60;;;;;;5071235;28;20100;-68
2022/07/27 11:06:11;;;;;;;0.32;0.32;;;23.70;48.10;;;;;;5073052;28;20013;-67
2022/07/27 11:08:42;;;;;;;0.30;0.30;;;24.00;47.80;;;;;;5039358;28;20110;-67
2022/07/27 11:11:10;;;;;;;0.68;0.50;;;24.40;46.60;;;;;;5051104;28;20041;-67
2022/07/27 11:13:36;;;;;;;0.38;0.30;;;24.70;46.50;;;;;;5051362;28;20029;-67
2022/07/27 11:16:08;;;;;;;0.32;0.32;;;25.10;46.40;;;;;;5051726;28;20028;-67
2022/07/27 11:18:36;;;;;;;0.43;0.28;;;25.40;46.00;;;;;;5038780;28;20055;-67
2022/07/27 11:21:23;;;;;;;0.77;0.57;;;25.70;45.60;;;;;;5066819;28;20498;-67
2022/07/27 11:23:57;;;;;;;0.57;0.43;;;25.80;44.30;;;;;;5050893;28;20122;-67
2022/07/27 11:26:25;;;;;;;0.90;0.63;;;25.80;44.20;;;;;;5051111;28;20025;-67
2022/07/27 11:28:52;;;;;;;1.58;0.43;;;25.40;44.40;;;;;;5050881;28;20029;-67
2022/07/27 11:31:18;;;;;;;0.63;0.60;;;24.90;45.20;;;;;;5051381;28;20501;-67
2022/07/27 11:33:57;;;;;;;0.30;0.22;;;24.50;45.90;;;;;;5048100;28;20032;-67
2022/07/27 11:36:41;;;;;;;0.40;0.40;;;24.10;46.80;;;;;;5048340;28;20081;-67
2022/07/27 11:39:10;;;;;;;2.17;0.40;;;23.80;47.40;;;;;;5048597;28;20384;-67
2022/07/27 11:41:36;;;;;;;0.43;0.43;;;23.60;47.40;;;;;;5051230;28;20063;-66
2022/07/27 11:44:08;;;;;;;0.50;0.50;;;23.40;47.70;;;;;;5058861;28;20051;-67
2022/07/27 11:46:43;;;;;;;0.30;0.30;;;23.20;48.00;;;;;;5044133;28;20124;-66
2022/07/27 11:49:29;;;;;;;0.73;0.60;;;23.20;48.00;;;;;;5062848;28;20017;-66
2022/07/27 11:52:02;;;;;;;0.47;0.47;;;23.00;48.10;;;;;;5047438;28;20640;-67
2022/07/27 11:54:30;;;;;;;0.30;0.30;;;23.10;48.00;;;;;;5048891;28;20044;-66
2022/07/27 11:57:02;;;;;;;0.60;0.55;;;23.10;47.80;;;;;;5065404;28;20098;-67
2022/07/27 11:59:31;;;;;;;0.50;0.47;;;23.20;47.40;;;;;;5047118;28;20048;-67
2022/07/27 12:02:18;;;;;;;0.40;0.30;;;23.30;47.10;;;;;;5042432;28;20030;-67
2022/07/27 12:04:49;;;;;;;0.30;0.30;;;23.40;46.60;;;;;;5048943;28;20384;-67
2022/07/27 12:07:29;;;;;;;0.63;0.35;;;23.60;46.50;;;;;;5039037;28;20056;-66
2022/07/27 12:10:00;;;;;;;0.30;0.30;;;23.70;46.20;;;;;;5048971;28;20476;-67
2022/07/27 12:12:34;;;;;;;0.40;0.40;;;23.90;45.90;;;;;;5046952;28;20507;-67
2022/07/27 12:15:15;;;;;;;0.52;0.30;;;24.00;45.80;;;;;;5050229;28;20029;-67
2022/07/27 12:17:42;;;;;;;0.30;0.30;;;24.10;44.80;;;;;;5045271;28;20037;-66
2022/07/27 12:20:16;;;;;;;0.20;0.20;;;24.20;44.80;;;;;;5048551;28;20029;-67
2022/07/27 12:22:47;;;;;;;2.28;0.50;;;24.30;44.40;;;;;;5050703;28;20025;-67
2022/07/27 12:25:16;;;;;;;0.50;0.37;;;24.40;44.10;;;;;;5068475;28;20029;-67
2022/07/27 12:28:05;;;;;;;0.30;0.30;;;24.80;44.10;;;;;;5054010;28;20263;-67
2022/07/27 12:30:39;;;;;;;1.02;0.70;;;25.50;42.90;;;;;;5053168;28;20111;-67
2022/07/27 12:33:24;;;;;;;2.33;0.35;;;26.10;41.80;;;;;;5048733;28;20052;-67
2022/07/27 12:35:50;;;;;;;0.50;0.50;;;26.50;41.30;;;;;;5045071;28;20044;-67
2022/07/27 12:38:16;;;;;;;0.45;0.45;;;27.10;40.00;;;;;;5049769;28;20033;-68
2022/07/27 12:40:55;;;;;;;0.60;0.50;;;27.30;38.10;;;;;;5050243;28;20033;-68
2022/07/27 12:43:24;;;;;;;0.30;0.30;;;27.50;37.30;;;;;;5049929;28;20044;-68
2022/07/27 12:45:52;;;;;;;0.77;0.77;;;27.30;37.90;;;;;;5047597;28;20032;-68
2022/07/27 12:48:19;;;;;;;0.50;0.50;;;26.90;38.80;;;;;;5043716;28;20025;-68
2022/07/27 12:50:47;;;;;;;0.50;0.50;;;26.60;39.30;;;;;;5048719;28;20507;-68
2022/07/27 12:53:14;;;;;;;0.20;0.20;;;26.10;39.20;;;;;;5050082;28;20414;-68
2022/07/27 12:55:42;;;;;;;0.50;0.40;;;25.70;40.10;;;;;;5050080;28;20036;-68
2022/07/27 12:58:09;;;;;;;0.93;0.93;;;25.50;40.90;;;;;;5048960;28;20037;-68